Time;durP1;ratioP1;P1;durP2;ratioP2;P2;SDS_P1;SDS_P2;PMS_P1;PMS_P2;Temp;Humidity;BMP_temperature;BMP_pressure;BME280_temperature;BME280_humidity;BME280_pressure;Samples;Min_cycle;Max_cycle;Signal;HPM_P1;HPM_P2
2020/12/31 00:00:34;;;;;;;5.3;2.75;;;;;;;-0.02;76.25391;94350.2;;;;
2020/12/31 00:01:35;;;;;;;5.3;2.75;;;;;;;-0.02;76.25391;94350.2;;;;
2020/12/31 00:02:35;;;;;;;5.3;2.75;;;;;;;-0.02;76.25391;94350.2;;;;
2020/12/31 00:03:36;;;;;;;5.3;2.75;;;;;;;-0.02;76.25391;94350.2;;;;
2020/12/31 00:04:36;;;;;;;6.349999;3.750001;;;;;;;-0.33;76.26074;94367.03;;;;
2020/12/31 00:05:37;;;;;;;6.349999;3.750001;;;;;;;-0.33;76.26074;94367.03;;;;
2020/12/31 00:06:37;;;;;;;6.349999;3.750001;;;;;;;-0.33;76.26074;94367.03;;;;
2020/12/31 00:07:37;;;;;;;6.349999;3.750001;;;;;;;-0.33;76.26074;94367.03;;;;
2020/12/31 00:08:38;;;;;;;6.349999;3.750001;;;;;;;-0.33;76.26074;94367.03;;;;
2020/12/31 00:09:38;;;;;;;6.349999;3.750001;;;;;;;-0.33;76.26074;94367.03;;;;
2020/12/31 00:10:39;;;;;;;6.349999;3.750001;;;;;;;-0.33;76.26074;94367.03;;;;
2020/12/31 00:11:40;;;;;;;6.349999;3.750001;;;;;;;-0.33;76.26074;94367.03;;;;
2020/12/31 00:12:41;;;;;;;6.349999;3.750001;;;;;;;-0.33;76.26074;94367.03;;;;
2020/12/31 00:13:41;;;;;;;6.349999;3.750001;;;;;;;-0.33;76.26074;94367.03;;;;
2020/12/31 00:14:42;;;;;;;6.349999;3.750001;;;;;;;-0.33;76.26074;94367.03;;;;
2020/12/31 00:15:42;;;;;;;4.400001;3.2;;;;;;;-0.72;76.38965;94365.77;;;;
2020/12/31 00:16:43;;;;;;;4.400001;3.2;;;;;;;-0.72;76.38965;94365.77;;;;
2020/12/31 00:17:43;;;;;;;4.400001;3.2;;;;;;;-0.72;76.38965;94365.77;;;;
2020/12/31 00:18:44;;;;;;;4.400001;3.2;;;;;;;-0.72;76.38965;94365.77;;;;
2020/12/31 00:19:44;;;;;;;4.400001;3.2;;;;;;;-0.72;76.38965;94365.77;;;;
2020/12/31 00:20:45;;;;;;;4.400001;3.2;;;;;;;-0.72;76.38965;94365.77;;;;
2020/12/31 00:21:45;;;;;;;4.400001;3.2;;;;;;;-0.72;76.38965;94365.77;;;;
2020/12/31 00:22:46;;;;;;;4.400001;3.2;;;;;;;-0.72;76.38965;94365.77;;;;
2020/12/31 00:23:46;;;;;;;4.400001;3.2;;;;;;;-0.72;76.38965;94365.77;;;;
2020/12/31 00:24:46;;;;;;;4.400001;3.2;;;;;;;-0.72;76.38965;94365.77;;;;
2020/12/31 00:25:47;;;;;;;5.649999;3.750001;;;;;;;-0.95;76.5957;94368.31;;;;
2020/12/31 00:26:49;;;;;;;5.649999;3.750001;;;;;;;-0.95;76.5957;94368.31;;;;
2020/12/31 00:27:50;;;;;;;5.649999;3.750001;;;;;;;-0.95;76.5957;94368.31;;;;
2020/12/31 00:28:51;;;;;;;5.649999;3.750001;;;;;;;-0.95;76.5957;94368.31;;;;
2020/12/31 00:29:51;;;;;;;5.649999;3.750001;;;;;;;-0.95;76.5957;94368.31;;;;
2020/12/31 00:30:51;;;;;;;5.649999;3.750001;;;;;;;-0.95;76.5957;94368.31;;;;
2020/12/31 00:31:52;;;;;;;5.649999;3.750001;;;;;;;-0.95;76.5957;94368.31;;;;
2020/12/31 00:32:53;;;;;;;5.649999;3.750001;;;;;;;-0.95;76.5957;94368.31;;;;
2020/12/31 00:33:53;;;;;;;5.649999;3.750001;;;;;;;-0.95;76.5957;94368.31;;;;
2020/12/31 00:34:54;;;;;;;5.649999;3.750001;;;;;;;-0.95;76.5957;94368.31;;;;
2020/12/31 00:35:54;;;;;;;5.649999;3.750001;;;;;;;-0.95;76.5957;94368.31;;;;
2020/12/31 00:36:56;;;;;;;4.2;2.85;;;;;;;-1.08;76.86719;94369.8;;;;
2020/12/31 00:37:57;;;;;;;4.2;2.85;;;;;;;-1.08;76.86719;94369.8;;;;
2020/12/31 00:38:57;;;;;;;4.2;2.85;;;;;;;-1.08;76.86719;94369.8;;;;
2020/12/31 00:39:57;;;;;;;4.2;2.85;;;;;;;-1.08;76.86719;94369.8;;;;
2020/12/31 00:40:59;;;;;;;4.2;2.85;;;;;;;-1.08;76.86719;94369.8;;;;
2020/12/31 00:41:59;;;;;;;4.2;2.85;;;;;;;-1.08;76.86719;94369.8;;;;
2020/12/31 00:43:00;;;;;;;4.2;2.85;;;;;;;-1.08;76.86719;94369.8;;;;
2020/12/31 00:44:00;;;;;;;4.2;2.85;;;;;;;-1.08;76.86719;94369.8;;;;
2020/12/31 00:45:01;;;;;;;4.2;2.85;;;;;;;-1.08;76.86719;94369.8;;;;
2020/12/31 00:46:02;;;;;;;4.2;2.85;;;;;;;-1.08;76.86719;94369.8;;;;
2020/12/31 00:47:02;;;;;;;3.6;2.6;;;;;;;-1.25;76.93848;94362.28;;;;
2020/12/31 00:48:03;;;;;;;3.6;2.6;;;;;;;-1.25;76.93848;94362.28;;;;
2020/12/31 00:49:03;;;;;;;3.6;2.6;;;;;;;-1.25;76.93848;94362.28;;;;
2020/12/31 00:50:05;;;;;;;3.6;2.6;;;;;;;-1.25;76.93848;94362.28;;;;
2020/12/31 00:51:05;;;;;;;3.6;2.6;;;;;;;-1.25;76.93848;94362.28;;;;
2020/12/31 00:52:06;;;;;;;3.6;2.6;;;;;;;-1.25;76.93848;94362.28;;;;
2020/12/31 00:53:07;;;;;;;3.6;2.6;;;;;;;-1.25;76.93848;94362.28;;;;
2020/12/31 00:54:07;;;;;;;3.6;2.6;;;;;;;-1.25;76.93848;94362.28;;;;
2020/12/31 00:55:08;;;;;;;3.6;2.6;;;;;;;-1.25;76.93848;94362.28;;;;
2020/12/31 00:56:08;;;;;;;3.6;2.6;;;;;;;-1.25;76.93848;94362.28;;;;
2020/12/31 00:57:09;;;;;;;3.6;2.6;;;;;;;-1.25;76.93848;94362.28;;;;
2020/12/31 00:58:09;;;;;;;5.1;3.2;;;;;;;-1.33;77.19531;94368.08;;;;
2020/12/31 00:59:10;;;;;;;5.1;3.2;;;;;;;-1.33;77.19531;94368.08;;;;
2020/12/31 01:00:10;;;;;;;5.1;3.2;;;;;;;-1.33;77.19531;94368.08;;;;
2020/12/31 01:01:11;;;;;;;5.1;3.2;;;;;;;-1.33;77.19531;94368.08;;;;
2020/12/31 01:02:12;;;;;;;5.1;3.2;;;;;;;-1.33;77.19531;94368.08;;;;
2020/12/31 01:03:12;;;;;;;5.1;3.2;;;;;;;-1.33;77.19531;94368.08;;;;
2020/12/31 01:04:13;;;;;;;5.1;3.2;;;;;;;-1.33;77.19531;94368.08;;;;
2020/12/31 01:05:14;;;;;;;5.1;3.2;;;;;;;-1.33;77.19531;94368.08;;;;
2020/12/31 01:06:16;;;;;;;5.1;3.2;;;;;;;-1.33;77.19531;94368.08;;;;
2020/12/31 01:07:16;;;;;;;5.1;3.2;;;;;;;-1.33;77.19531;94368.08;;;;
2020/12/31 01:08:17;;;;;;;5.1;3.2;;;;;;;-1.33;77.19531;94368.08;;;;
2020/12/31 01:09:18;;;;;;;4.900001;3.15;;;;;;;-1.15;77.3418;94370.73;;;;
2020/12/31 01:10:18;;;;;;;4.900001;3.15;;;;;;;-1.15;77.3418;94370.73;;;;
2020/12/31 01:11:20;;;;;;;4.900001;3.15;;;;;;;-1.15;77.3418;94370.73;;;;
2020/12/31 01:12:20;;;;;;;4.900001;3.15;;;;;;;-1.15;77.3418;94370.73;;;;
2020/12/31 01:13:21;;;;;;;4.900001;3.15;;;;;;;-1.15;77.3418;94370.73;;;;
2020/12/31 01:14:21;;;;;;;4.900001;3.15;;;;;;;-1.15;77.3418;94370.73;;;;
2020/12/31 01:15:22;;;;;;;4.900001;3.15;;;;;;;-1.15;77.3418;94370.73;;;;
2020/12/31 01:16:22;;;;;;;4.900001;3.15;;;;;;;-1.15;77.3418;94370.73;;;;
2020/12/31 01:17:23;;;;;;;4.900001;3.15;;;;;;;-1.15;77.3418;94370.73;;;;
2020/12/31 01:18:24;;;;;;;4.900001;3.15;;;;;;;-1.15;77.3418;94370.73;;;;
2020/12/31 01:19:25;;;;;;;4.800001;3.55;;;;;;;-0.84;77.53418;94371.67;;;;
2020/12/31 01:20:25;;;;;;;4.800001;3.55;;;;;;;-0.84;77.53418;94371.67;;;;
2020/12/31 01:21:26;;;;;;;4.800001;3.55;;;;;;;-0.84;77.53418;94371.67;;;;
2020/12/31 01:22:26;;;;;;;4.800001;3.55;;;;;;;-0.84;77.53418;94371.67;;;;
2020/12/31 01:23:27;;;;;;;4.800001;3.55;;;;;;;-0.84;77.53418;94371.67;;;;
2020/12/31 01:24:27;;;;;;;4.800001;3.55;;;;;;;-0.84;77.53418;94371.67;;;;
2020/12/31 01:25:28;;;;;;;4.800001;3.55;;;;;;;-0.84;77.53418;94371.67;;;;
2020/12/31 01:26:28;;;;;;;4.800001;3.55;;;;;;;-0.84;77.53418;94371.67;;;;
2020/12/31 01:27:31;;;;;;;4.800001;3.55;;;;;;;-0.84;77.53418;94371.67;;;;
2020/12/31 01:28:32;;;;;;;4.800001;3.55;;;;;;;-0.84;77.53418;94371.67;;;;
2020/12/31 01:29:33;;;;;;;4.800001;3.55;;;;;;;-0.84;77.53418;94371.67;;;;
2020/12/31 01:30:33;;;;;;;5.849999;3.9;;;;;;;-0.49;77.72266;94362.92;;;;
2020/12/31 01:31:34;;;;;;;5.849999;3.9;;;;;;;-0.49;77.72266;94362.92;;;;
2020/12/31 01:32:34;;;;;;;5.849999;3.9;;;;;;;-0.49;77.72266;94362.92;;;;
2020/12/31 01:33:35;;;;;;;5.849999;3.9;;;;;;;-0.49;77.72266;94362.92;;;;
2020/12/31 01:34:36;;;;;;;5.849999;3.9;;;;;;;-0.49;77.72266;94362.92;;;;
2020/12/31 01:35:36;;;;;;;5.849999;3.9;;;;;;;-0.49;77.72266;94362.92;;;;
2020/12/31 01:36:37;;;;;;;5.849999;3.9;;;;;;;-0.49;77.72266;94362.92;;;;
2020/12/31 01:37:37;;;;;;;5.849999;3.9;;;;;;;-0.49;77.72266;94362.92;;;;
2020/12/31 01:38:37;;;;;;;5.849999;3.9;;;;;;;-0.49;77.72266;94362.92;;;;
2020/12/31 01:39:38;;;;;;;5.849999;3.9;;;;;;;-0.49;77.72266;94362.92;;;;
2020/12/31 01:40:38;;;;;;;4.55;3.5;;;;;;;-0.25;78.02539;94362.09;;;;
2020/12/31 01:41:45;;;;;;;4.55;3.5;;;;;;;-0.25;78.02539;94362.09;;;;
2020/12/31 01:42:46;;;;;;;4.55;3.5;;;;;;;-0.25;78.02539;94362.09;;;;
2020/12/31 01:43:47;;;;;;;4.55;3.5;;;;;;;-0.25;78.02539;94362.09;;;;
2020/12/31 01:45:01;;;;;;;4.55;3.5;;;;;;;-0.25;78.02539;94362.09;;;;
2020/12/31 01:46:02;;;;;;;4.55;3.5;;;;;;;-0.25;78.02539;94362.09;;;;
2020/12/31 01:47:02;;;;;;;4.55;3.5;;;;;;;-0.25;78.02539;94362.09;;;;
2020/12/31 01:48:03;;;;;;;4.55;3.5;;;;;;;-0.25;78.02539;94362.09;;;;
2020/12/31 01:49:04;;;;;;;4.55;3.5;;;;;;;-0.25;78.02539;94362.09;;;;
2020/12/31 01:50:07;;;;;;;4.55;3.5;;;;;;;-0.25;78.02539;94362.09;;;;
2020/12/31 01:51:08;;;;;;;5;3.8;;;;;;;-0.08;77.65234;94344.36;;;;
2020/12/31 01:52:08;;;;;;;5;3.8;;;;;;;-0.08;77.65234;94344.36;;;;
2020/12/31 01:53:13;;;;;;;5;3.8;;;;;;;-0.08;77.65234;94344.36;;;;
2020/12/31 01:54:14;;;;;;;5;3.8;;;;;;;-0.08;77.65234;94344.36;;;;
2020/12/31 01:55:17;;;;;;;5;3.8;;;;;;;-0.08;77.65234;94344.36;;;;
2020/12/31 01:56:18;;;;;;;5;3.8;;;;;;;-0.08;77.65234;94344.36;;;;
2020/12/31 01:57:22;;;;;;;5;3.8;;;;;;;-0.08;77.65234;94344.36;;;;
2020/12/31 01:58:22;;;;;;;5;3.8;;;;;;;-0.08;77.65234;94344.36;;;;
2020/12/31 01:59:23;;;;;;;5;3.8;;;;;;;-0.08;77.65234;94344.36;;;;
2020/12/31 02:00:25;;;;;;;5;3.8;;;;;;;-0.08;77.65234;94344.36;;;;
2020/12/31 02:01:25;;;;;;;5;3.8;;;;;;;-0.08;77.65234;94344.36;;;;
2020/12/31 02:02:27;;;;;;;4.249999;3.7;;;;;;;-0.25;77.58789;94351.87;;;;
2020/12/31 02:03:27;;;;;;;4.249999;3.7;;;;;;;-0.25;77.58789;94351.87;;;;
2020/12/31 02:04:28;;;;;;;4.249999;3.7;;;;;;;-0.25;77.58789;94351.87;;;;
2020/12/31 02:05:29;;;;;;;4.249999;3.7;;;;;;;-0.25;77.58789;94351.87;;;;
2020/12/31 02:06:29;;;;;;;4.249999;3.7;;;;;;;-0.25;77.58789;94351.87;;;;
2020/12/31 02:07:33;;;;;;;4.249999;3.7;;;;;;;-0.25;77.58789;94351.87;;;;
2020/12/31 02:08:34;;;;;;;4.249999;3.7;;;;;;;-0.25;77.58789;94351.87;;;;
2020/12/31 02:09:34;;;;;;;4.249999;3.7;;;;;;;-0.25;77.58789;94351.87;;;;
2020/12/31 02:10:35;;;;;;;4.249999;3.7;;;;;;;-0.25;77.58789;94351.87;;;;
2020/12/31 02:11:35;;;;;;;4.249999;3.7;;;;;;;-0.25;77.58789;94351.87;;;;
2020/12/31 02:12:37;;;;;;;5.95;3.75;;;;;;;-0.47;77.72559;94341.44;;;;
2020/12/31 02:13:37;;;;;;;5.95;3.75;;;;;;;-0.47;77.72559;94341.44;;;;
2020/12/31 02:14:38;;;;;;;5.95;3.75;;;;;;;-0.47;77.72559;94341.44;;;;
2020/12/31 02:15:48;;;;;;;5.95;3.75;;;;;;;-0.47;77.72559;94341.44;;;;
2020/12/31 02:16:48;;;;;;;5.95;3.75;;;;;;;-0.47;77.72559;94341.44;;;;
2020/12/31 02:17:49;;;;;;;5.95;3.75;;;;;;;-0.47;77.72559;94341.44;;;;
2020/12/31 02:18:50;;;;;;;5.95;3.75;;;;;;;-0.47;77.72559;94341.44;;;;
2020/12/31 02:19:53;;;;;;;5.95;3.75;;;;;;;-0.47;77.72559;94341.44;;;;
2020/12/31 02:20:54;;;;;;;5.95;3.75;;;;;;;-0.47;77.72559;94341.44;;;;
2020/12/31 02:21:54;;;;;;;5.95;3.75;;;;;;;-0.47;77.72559;94341.44;;;;
2020/12/31 02:22:55;;;;;;;5.95;3.75;;;;;;;-0.47;77.72559;94341.44;;;;
2020/12/31 02:23:56;;;;;;;4.750001;3.75;;;;;;;-0.7;77.5166;94347.43;;;;
2020/12/31 02:24:58;;;;;;;4.750001;3.75;;;;;;;-0.7;77.5166;94347.43;;;;
2020/12/31 02:25:58;;;;;;;4.750001;3.75;;;;;;;-0.7;77.5166;94347.43;;;;
2020/12/31 02:26:59;;;;;;;4.750001;3.75;;;;;;;-0.7;77.5166;94347.43;;;;
2020/12/31 02:27:59;;;;;;;4.750001;3.75;;;;;;;-0.7;77.5166;94347.43;;;;
2020/12/31 02:29:00;;;;;;;4.750001;3.75;;;;;;;-0.7;77.5166;94347.43;;;;
2020/12/31 02:30:02;;;;;;;4.750001;3.75;;;;;;;-0.7;77.5166;94347.43;;;;
2020/12/31 02:31:03;;;;;;;4.750001;3.75;;;;;;;-0.7;77.5166;94347.43;;;;
2020/12/31 02:32:03;;;;;;;4.750001;3.75;;;;;;;-0.7;77.5166;94347.43;;;;
2020/12/31 02:33:03;;;;;;;4.750001;3.75;;;;;;;-0.7;77.5166;94347.43;;;;
2020/12/31 02:34:04;;;;;;;5.45;3.9;;;;;;;-1;77.55469;94348.58;;;;
2020/12/31 02:35:06;;;;;;;5.45;3.9;;;;;;;-1;77.55469;94348.58;;;;
2020/12/31 02:36:06;;;;;;;5.45;3.9;;;;;;;-1;77.55469;94348.58;;;;
2020/12/31 02:37:07;;;;;;;5.45;3.9;;;;;;;-1;77.55469;94348.58;;;;
2020/12/31 02:38:07;;;;;;;5.45;3.9;;;;;;;-1;77.55469;94348.58;;;;
2020/12/31 02:39:08;;;;;;;5.45;3.9;;;;;;;-1;77.55469;94348.58;;;;
2020/12/31 02:40:10;;;;;;;5.45;3.9;;;;;;;-1;77.55469;94348.58;;;;
2020/12/31 02:41:11;;;;;;;5.45;3.9;;;;;;;-1;77.55469;94348.58;;;;
2020/12/31 02:42:12;;;;;;;5.45;3.9;;;;;;;-1;77.55469;94348.58;;;;
2020/12/31 02:43:12;;;;;;;5.45;3.9;;;;;;;-1;77.55469;94348.58;;;;
2020/12/31 02:44:13;;;;;;;5.45;3.9;;;;;;;-1;77.55469;94348.58;;;;
2020/12/31 02:45:14;;;;;;;5.2;3.95;;;;;;;-1.24;77.61816;94346.2;;;;
2020/12/31 02:46:15;;;;;;;5.2;3.95;;;;;;;-1.24;77.61816;94346.2;;;;
2020/12/31 02:47:17;;;;;;;5.2;3.95;;;;;;;-1.24;77.61816;94346.2;;;;
2020/12/31 02:48:17;;;;;;;5.2;3.95;;;;;;;-1.24;77.61816;94346.2;;;;
2020/12/31 02:49:18;;;;;;;5.2;3.95;;;;;;;-1.24;77.61816;94346.2;;;;
2020/12/31 02:50:18;;;;;;;5.2;3.95;;;;;;;-1.24;77.61816;94346.2;;;;
2020/12/31 02:51:19;;;;;;;5.2;3.95;;;;;;;-1.24;77.61816;94346.2;;;;
2020/12/31 02:52:20;;;;;;;5.2;3.95;;;;;;;-1.24;77.61816;94346.2;;;;
2020/12/31 02:53:20;;;;;;;5.2;3.95;;;;;;;-1.24;77.61816;94346.2;;;;
2020/12/31 02:54:21;;;;;;;5.2;3.95;;;;;;;-1.24;77.61816;94346.2;;;;
2020/12/31 02:55:21;;;;;;;5.75;3.85;;;;;;;-1.48;77.65625;94340.84;;;;
2020/12/31 02:56:21;;;;;;;5.75;3.85;;;;;;;-1.48;77.65625;94340.84;;;;
2020/12/31 02:57:23;;;;;;;5.75;3.85;;;;;;;-1.48;77.65625;94340.84;;;;
2020/12/31 02:58:23;;;;;;;5.75;3.85;;;;;;;-1.48;77.65625;94340.84;;;;
2020/12/31 02:59:24;;;;;;;5.75;3.85;;;;;;;-1.48;77.65625;94340.84;;;;
2020/12/31 03:00:24;;;;;;;5.75;3.85;;;;;;;-1.48;77.65625;94340.84;;;;
2020/12/31 03:01:25;;;;;;;5.75;3.85;;;;;;;-1.48;77.65625;94340.84;;;;
2020/12/31 03:02:25;;;;;;;5.75;3.85;;;;;;;-1.48;77.65625;94340.84;;;;
2020/12/31 03:03:25;;;;;;;5.75;3.85;;;;;;;-1.48;77.65625;94340.84;;;;
2020/12/31 03:04:26;;;;;;;5.75;3.85;;;;;;;-1.48;77.65625;94340.84;;;;
2020/12/31 03:05:26;;;;;;;5.75;3.85;;;;;;;-1.48;77.65625;94340.84;;;;
2020/12/31 03:06:27;;;;;;;6.05;3.6;;;;;;;-1.68;77.64941;94333.17;;;;
2020/12/31 03:07:27;;;;;;;6.05;3.6;;;;;;;-1.68;77.64941;94333.17;;;;
2020/12/31 03:08:28;;;;;;;6.05;3.6;;;;;;;-1.68;77.64941;94333.17;;;;
2020/12/31 03:09:28;;;;;;;6.05;3.6;;;;;;;-1.68;77.64941;94333.17;;;;
2020/12/31 03:10:29;;;;;;;6.05;3.6;;;;;;;-1.68;77.64941;94333.17;;;;
2020/12/31 03:11:29;;;;;;;6.05;3.6;;;;;;;-1.68;77.64941;94333.17;;;;
2020/12/31 03:12:30;;;;;;;6.05;3.6;;;;;;;-1.68;77.64941;94333.17;;;;
2020/12/31 03:13:30;;;;;;;6.05;3.6;;;;;;;-1.68;77.64941;94333.17;;;;
2020/12/31 03:14:31;;;;;;;6.05;3.6;;;;;;;-1.68;77.64941;94333.17;;;;
2020/12/31 03:15:31;;;;;;;6.05;3.6;;;;;;;-1.68;77.64941;94333.17;;;;
2020/12/31 03:16:32;;;;;;;5.25;3.5;;;;;;;-1.88;77.8418;94335.66;;;;
2020/12/31 03:17:32;;;;;;;5.25;3.5;;;;;;;-1.88;77.8418;94335.66;;;;
2020/12/31 03:18:33;;;;;;;5.25;3.5;;;;;;;-1.88;77.8418;94335.66;;;;
2020/12/31 03:19:33;;;;;;;5.25;3.5;;;;;;;-1.88;77.8418;94335.66;;;;
2020/12/31 03:20:34;;;;;;;5.25;3.5;;;;;;;-1.88;77.8418;94335.66;;;;
2020/12/31 03:21:34;;;;;;;5.25;3.5;;;;;;;-1.88;77.8418;94335.66;;;;
2020/12/31 03:22:35;;;;;;;5.25;3.5;;;;;;;-1.88;77.8418;94335.66;;;;
2020/12/31 03:23:36;;;;;;;5.25;3.5;;;;;;;-1.88;77.8418;94335.66;;;;
2020/12/31 03:24:37;;;;;;;5.25;3.5;;;;;;;-1.88;77.8418;94335.66;;;;
2020/12/31 03:25:37;;;;;;;5.25;3.5;;;;;;;-1.88;77.8418;94335.66;;;;
2020/12/31 03:26:38;;;;;;;5.25;3.5;;;;;;;-1.88;77.8418;94335.66;;;;
2020/12/31 03:27:38;;;;;;;10.5;5.5;;;;;;;-2.01;77.87109;94339.85;;;;
2020/12/31 03:28:39;;;;;;;10.5;5.5;;;;;;;-2.01;77.87109;94339.85;;;;
2020/12/31 03:29:39;;;;;;;10.5;5.5;;;;;;;-2.01;77.87109;94339.85;;;;
2020/12/31 03:30:40;;;;;;;10.5;5.5;;;;;;;-2.01;77.87109;94339.85;;;;
2020/12/31 03:31:41;;;;;;;10.5;5.5;;;;;;;-2.01;77.87109;94339.85;;;;
2020/12/31 03:32:42;;;;;;;10.5;5.5;;;;;;;-2.01;77.87109;94339.85;;;;
2020/12/31 03:33:42;;;;;;;10.5;5.5;;;;;;;-2.01;77.87109;94339.85;;;;
2020/12/31 03:34:43;;;;;;;10.5;5.5;;;;;;;-2.01;77.87109;94339.85;;;;
2020/12/31 03:35:43;;;;;;;10.5;5.5;;;;;;;-2.01;77.87109;94339.85;;;;
2020/12/31 03:36:46;;;;;;;10.5;5.5;;;;;;;-2.01;77.87109;94339.85;;;;
2020/12/31 03:37:46;;;;;;;10.5;5.5;;;;;;;-2.01;77.87109;94339.85;;;;
2020/12/31 03:38:47;;;;;;;5.7;4;;;;;;;-2.12;77.83984;94337.28;;;;
2020/12/31 03:39:47;;;;;;;5.7;4;;;;;;;-2.12;77.83984;94337.28;;;;
2020/12/31 03:40:48;;;;;;;5.7;4;;;;;;;-2.12;77.83984;94337.28;;;;
2020/12/31 03:41:49;;;;;;;5.7;4;;;;;;;-2.12;77.83984;94337.28;;;;
2020/12/31 03:42:49;;;;;;;5.7;4;;;;;;;-2.12;77.83984;94337.28;;;;
2020/12/31 03:43:49;;;;;;;5.7;4;;;;;;;-2.12;77.83984;94337.28;;;;
2020/12/31 03:44:50;;;;;;;5.7;4;;;;;;;-2.12;77.83984;94337.28;;;;
2020/12/31 03:45:50;;;;;;;5.7;4;;;;;;;-2.12;77.83984;94337.28;;;;
2020/12/31 03:46:51;;;;;;;5.7;4;;;;;;;-2.12;77.83984;94337.28;;;;
2020/12/31 03:47:52;;;;;;;5.7;4;;;;;;;-2.12;77.83984;94337.28;;;;
2020/12/31 03:48:52;;;;;;;5.4;3.5;;;;;;;-2.26;77.84473;94319.98;;;;
2020/12/31 03:49:52;;;;;;;5.4;3.5;;;;;;;-2.26;77.84473;94319.98;;;;
2020/12/31 03:50:53;;;;;;;5.4;3.5;;;;;;;-2.26;77.84473;94319.98;;;;
2020/12/31 03:51:53;;;;;;;5.4;3.5;;;;;;;-2.26;77.84473;94319.98;;;;
2020/12/31 03:52:54;;;;;;;5.4;3.5;;;;;;;-2.26;77.84473;94319.98;;;;
2020/12/31 03:53:54;;;;;;;5.4;3.5;;;;;;;-2.26;77.84473;94319.98;;;;
2020/12/31 03:54:55;;;;;;;5.4;3.5;;;;;;;-2.26;77.84473;94319.98;;;;
2020/12/31 03:55:55;;;;;;;5.4;3.5;;;;;;;-2.26;77.84473;94319.98;;;;
2020/12/31 03:56:56;;;;;;;5.4;3.5;;;;;;;-2.26;77.84473;94319.98;;;;
2020/12/31 03:57:56;;;;;;;5.4;3.5;;;;;;;-2.26;77.84473;94319.98;;;;
2020/12/31 03:58:57;;;;;;;5.4;3.5;;;;;;;-2.26;77.84473;94319.98;;;;
2020/12/31 03:59:57;;;;;;;5.8;3.95;;;;;;;-2.4;77.80859;94312.87;;;;
2020/12/31 04:00:58;;;;;;;5.8;3.95;;;;;;;-2.4;77.80859;94312.87;;;;
2020/12/31 04:01:58;;;;;;;5.8;3.95;;;;;;;-2.4;77.80859;94312.87;;;;
2020/12/31 04:02:58;;;;;;;5.8;3.95;;;;;;;-2.4;77.80859;94312.87;;;;
2020/12/31 04:03:59;;;;;;;5.8;3.95;;;;;;;-2.4;77.80859;94312.87;;;;
2020/12/31 04:05:01;;;;;;;5.8;3.95;;;;;;;-2.4;77.80859;94312.87;;;;
2020/12/31 04:06:02;;;;;;;5.8;3.95;;;;;;;-2.4;77.80859;94312.87;;;;
2020/12/31 04:07:02;;;;;;;5.8;3.95;;;;;;;-2.4;77.80859;94312.87;;;;
2020/12/31 04:08:03;;;;;;;5.8;3.95;;;;;;;-2.4;77.80859;94312.87;;;;
2020/12/31 04:09:04;;;;;;;5.8;3.95;;;;;;;-2.4;77.80859;94312.87;;;;
2020/12/31 04:10:04;;;;;;;4.95;3.35;;;;;;;-2.61;77.89551;94308.7;;;;
2020/12/31 04:11:05;;;;;;;4.95;3.35;;;;;;;-2.61;77.89551;94308.7;;;;
2020/12/31 04:12:05;;;;;;;4.95;3.35;;;;;;;-2.61;77.89551;94308.7;;;;
2020/12/31 04:13:06;;;;;;;4.95;3.35;;;;;;;-2.61;77.89551;94308.7;;;;
2020/12/31 04:14:06;;;;;;;4.95;3.35;;;;;;;-2.61;77.89551;94308.7;;;;
2020/12/31 04:15:07;;;;;;;4.95;3.35;;;;;;;-2.61;77.89551;94308.7;;;;
2020/12/31 04:16:07;;;;;;;4.95;3.35;;;;;;;-2.61;77.89551;94308.7;;;;
2020/12/31 04:17:08;;;;;;;4.95;3.35;;;;;;;-2.61;77.89551;94308.7;;;;
2020/12/31 04:18:08;;;;;;;4.95;3.35;;;;;;;-2.61;77.89551;94308.7;;;;
2020/12/31 04:19:09;;;;;;;4.95;3.35;;;;;;;-2.61;77.89551;94308.7;;;;
2020/12/31 04:20:09;;;;;;;4.95;3.35;;;;;;;-2.61;77.89551;94308.7;;;;
2020/12/31 04:21:10;;;;;;;5.599999;3.95;;;;;;;-2.76;78.22949;94300.44;;;;
2020/12/31 04:22:10;;;;;;;5.599999;3.95;;;;;;;-2.76;78.22949;94300.44;;;;
2020/12/31 04:23:11;;;;;;;5.599999;3.95;;;;;;;-2.76;78.22949;94300.44;;;;
2020/12/31 04:24:11;;;;;;;5.599999;3.95;;;;;;;-2.76;78.22949;94300.44;;;;
2020/12/31 04:25:12;;;;;;;5.599999;3.95;;;;;;;-2.76;78.22949;94300.44;;;;
2020/12/31 04:26:12;;;;;;;5.599999;3.95;;;;;;;-2.76;78.22949;94300.44;;;;
2020/12/31 04:27:13;;;;;;;5.599999;3.95;;;;;;;-2.76;78.22949;94300.44;;;;
2020/12/31 04:28:13;;;;;;;5.599999;3.95;;;;;;;-2.76;78.22949;94300.44;;;;
2020/12/31 04:29:14;;;;;;;5.599999;3.95;;;;;;;-2.76;78.22949;94300.44;;;;
2020/12/31 04:30:15;;;;;;;5.599999;3.95;;;;;;;-2.76;78.22949;94300.44;;;;
2020/12/31 04:31:15;;;;;;;5.35;3.7;;;;;;;-2.88;78.26074;94297.81;;;;
2020/12/31 04:32:15;;;;;;;5.35;3.7;;;;;;;-2.88;78.26074;94297.81;;;;
2020/12/31 04:33:16;;;;;;;5.35;3.7;;;;;;;-2.88;78.26074;94297.81;;;;
2020/12/31 04:34:17;;;;;;;5.35;3.7;;;;;;;-2.88;78.26074;94297.81;;;;
2020/12/31 04:35:18;;;;;;;5.35;3.7;;;;;;;-2.88;78.26074;94297.81;;;;
2020/12/31 04:36:18;;;;;;;5.35;3.7;;;;;;;-2.88;78.26074;94297.81;;;;
2020/12/31 04:37:19;;;;;;;5.35;3.7;;;;;;;-2.88;78.26074;94297.81;;;;
2020/12/31 04:38:19;;;;;;;5.35;3.7;;;;;;;-2.88;78.26074;94297.81;;;;
2020/12/31 04:39:20;;;;;;;5.35;3.7;;;;;;;-2.88;78.26074;94297.81;;;;
2020/12/31 04:40:20;;;;;;;5.35;3.7;;;;;;;-2.88;78.26074;94297.81;;;;
2020/12/31 04:41:21;;;;;;;5.35;3.7;;;;;;;-2.88;78.26074;94297.81;;;;
2020/12/31 04:42:21;;;;;;;8.6;4.249999;;;;;;;-2.9;78.23633;94286.64;;;;
2020/12/31 04:43:22;;;;;;;8.6;4.249999;;;;;;;-2.9;78.23633;94286.64;;;;
2020/12/31 04:44:23;;;;;;;8.6;4.249999;;;;;;;-2.9;78.23633;94286.64;;;;
2020/12/31 04:45:24;;;;;;;8.6;4.249999;;;;;;;-2.9;78.23633;94286.64;;;;
2020/12/31 04:46:26;;;;;;;8.6;4.249999;;;;;;;-2.9;78.23633;94286.64;;;;
2020/12/31 04:47:28;;;;;;;8.6;4.249999;;;;;;;-2.9;78.23633;94286.64;;;;
2020/12/31 04:48:34;;;;;;;8.6;4.249999;;;;;;;-2.9;78.23633;94286.64;;;;
2020/12/31 04:49:39;;;;;;;8.6;4.249999;;;;;;;-2.9;78.23633;94286.64;;;;
2020/12/31 04:50:43;;;;;;;8.6;4.249999;;;;;;;-2.9;78.23633;94286.64;;;;
2020/12/31 04:51:47;;;;;;;8.6;4.249999;;;;;;;-2.9;78.23633;94286.64;;;;
2020/12/31 04:52:48;;;;;;;5.650001;4.150001;;;;;;;-2.94;78.4248;94286.74;;;;
2020/12/31 04:53:49;;;;;;;5.650001;4.150001;;;;;;;-2.94;78.4248;94286.74;;;;
2020/12/31 04:54:50;;;;;;;5.650001;4.150001;;;;;;;-2.94;78.4248;94286.74;;;;
2020/12/31 04:55:52;;;;;;;5.650001;4.150001;;;;;;;-2.94;78.4248;94286.74;;;;
2020/12/31 04:56:52;;;;;;;5.650001;4.150001;;;;;;;-2.94;78.4248;94286.74;;;;
2020/12/31 04:57:54;;;;;;;5.650001;4.150001;;;;;;;-2.94;78.4248;94286.74;;;;
2020/12/31 04:58:55;;;;;;;5.650001;4.150001;;;;;;;-2.94;78.4248;94286.74;;;;
2020/12/31 04:59:55;;;;;;;5.650001;4.150001;;;;;;;-2.94;78.4248;94286.74;;;;
2020/12/31 05:00:57;;;;;;;5.650001;4.150001;;;;;;;-2.94;78.4248;94286.74;;;;
2020/12/31 05:01:58;;;;;;;5.650001;4.150001;;;;;;;-2.94;78.4248;94286.74;;;;
2020/12/31 05:02:58;;;;;;;5.650001;4.150001;;;;;;;-2.94;78.4248;94286.74;;;;
2020/12/31 05:03:58;;;;;;;6.099999;4.299999;;;;;;;-2.9;78.62988;94284.91;;;;
2020/12/31 05:04:59;;;;;;;6.099999;4.299999;;;;;;;-2.9;78.62988;94284.91;;;;
2020/12/31 05:06:00;;;;;;;6.099999;4.299999;;;;;;;-2.9;78.62988;94284.91;;;;
2020/12/31 05:07:03;;;;;;;6.099999;4.299999;;;;;;;-2.9;78.62988;94284.91;;;;
2020/12/31 05:08:07;;;;;;;6.099999;4.299999;;;;;;;-2.9;78.62988;94284.91;;;;
2020/12/31 05:09:07;;;;;;;6.099999;4.299999;;;;;;;-2.9;78.62988;94284.91;;;;
2020/12/31 05:10:17;;;;;;;6.099999;4.299999;;;;;;;-2.9;78.62988;94284.91;;;;
2020/12/31 05:11:17;;;;;;;6.099999;4.299999;;;;;;;-2.9;78.62988;94284.91;;;;
2020/12/31 05:12:18;;;;;;;6.099999;4.299999;;;;;;;-2.9;78.62988;94284.91;;;;
2020/12/31 05:13:28;;;;;;;6.099999;4.299999;;;;;;;-2.9;78.62988;94284.91;;;;
2020/12/31 05:14:29;;;;;;;6.349999;4.2;;;;;;;-2.75;78.63574;94290.59;;;;
2020/12/31 05:15:31;;;;;;;6.349999;4.2;;;;;;;-2.75;78.63574;94290.59;;;;
2020/12/31 05:16:33;;;;;;;6.349999;4.2;;;;;;;-2.75;78.63574;94290.59;;;;
2020/12/31 05:17:33;;;;;;;6.349999;4.2;;;;;;;-2.75;78.63574;94290.59;;;;
2020/12/31 05:18:35;;;;;;;6.349999;4.2;;;;;;;-2.75;78.63574;94290.59;;;;
2020/12/31 05:19:36;;;;;;;6.349999;4.2;;;;;;;-2.75;78.63574;94290.59;;;;
2020/12/31 05:20:37;;;;;;;6.349999;4.2;;;;;;;-2.75;78.63574;94290.59;;;;
2020/12/31 05:21:37;;;;;;;6.349999;4.2;;;;;;;-2.75;78.63574;94290.59;;;;
2020/12/31 05:22:37;;;;;;;6.349999;4.2;;;;;;;-2.75;78.63574;94290.59;;;;
2020/12/31 05:23:38;;;;;;;6.349999;4.2;;;;;;;-2.75;78.63574;94290.59;;;;
2020/12/31 05:24:39;;;;;;;6.45;4.15;;;;;;;-2.76;78.40625;94289.87;;;;
2020/12/31 05:25:42;;;;;;;6.45;4.15;;;;;;;-2.76;78.40625;94289.87;;;;
2020/12/31 05:26:43;;;;;;;6.45;4.15;;;;;;;-2.76;78.40625;94289.87;;;;
2020/12/31 05:27:43;;;;;;;6.45;4.15;;;;;;;-2.76;78.40625;94289.87;;;;
2020/12/31 05:28:44;;;;;;;6.45;4.15;;;;;;;-2.76;78.40625;94289.87;;;;
2020/12/31 05:29:49;;;;;;;6.45;4.15;;;;;;;-2.76;78.40625;94289.87;;;;
2020/12/31 05:30:57;;;;;;;6.45;4.15;;;;;;;-2.76;78.40625;94289.87;;;;
2020/12/31 05:31:59;;;;;;;6.45;4.15;;;;;;;-2.76;78.40625;94289.87;;;;
2020/12/31 05:33:00;;;;;;;6.45;4.15;;;;;;;-2.76;78.40625;94289.87;;;;
2020/12/31 05:34:04;;;;;;;6.45;4.15;;;;;;;-2.76;78.40625;94289.87;;;;
2020/12/31 05:35:05;;;;;;;6.45;4.15;;;;;;;-2.76;78.40625;94289.87;;;;
2020/12/31 05:36:11;;;;;;;6.15;3.8;;;;;;;-2.86;78.24219;94285.36;;;;
2020/12/31 05:37:15;;;;;;;6.15;3.8;;;;;;;-2.86;78.24219;94285.36;;;;
2020/12/31 05:38:17;;;;;;;6.15;3.8;;;;;;;-2.86;78.24219;94285.36;;;;
2020/12/31 05:39:19;;;;;;;6.15;3.8;;;;;;;-2.86;78.24219;94285.36;;;;
2020/12/31 05:40:20;;;;;;;6.15;3.8;;;;;;;-2.86;78.24219;94285.36;;;;
2020/12/31 05:41:20;;;;;;;6.15;3.8;;;;;;;-2.86;78.24219;94285.36;;;;